createdAt,value
2018-09-30T00:01:06.796Z,5.73
2018-09-30T00:03:34.976Z,5.73
2018-09-30T00:06:03.102Z,5.83
2018-09-30T00:08:31.282Z,6.37
2018-09-30T00:10:59.475Z,5.00
2018-09-30T00:13:28.305Z,5.30
2018-09-30T00:15:56.844Z,5.17
2018-09-30T00:18:25.221Z,5.77
2018-09-30T00:20:53.529Z,6.23
2018-09-30T00:23:21.700Z,5.93
2018-09-30T00:25:55.560Z,5.93
2018-09-30T00:28:23.760Z,5.37
2018-09-30T00:30:52.157Z,5.60
2018-09-30T00:33:20.304Z,5.43
2018-09-30T00:35:48.483Z,5.57
2018-09-30T00:38:16.861Z,5.73
2018-09-30T00:40:45.003Z,5.67
2018-09-30T00:43:13.262Z,5.73
2018-09-30T00:45:41.405Z,6.37
2018-09-30T00:48:09.713Z,5.53
2018-09-30T00:50:37.856Z,5.50
2018-09-30T00:53:05.953Z,6.23
2018-09-30T00:55:34.088Z,7.40
2018-09-30T00:58:02.358Z,8.20
2018-09-30T01:00:30.518Z,7.10
2018-09-30T01:02:58.612Z,6.70
2018-09-30T01:05:26.867Z,5.97
2018-09-30T01:07:55.120Z,6.20
2018-09-30T01:10:23.274Z,5.60
2018-09-30T01:12:51.408Z,6.33
2018-09-30T01:15:19.550Z,5.37
2018-09-30T01:17:47.692Z,5.80
2018-09-30T01:20:15.974Z,6.60
2018-09-30T01:22:44.175Z,7.00
2018-09-30T01:25:12.663Z,6.70
2018-09-30T01:27:40.858Z,6.57
2018-09-30T01:30:09.139Z,6.13
2018-09-30T01:32:37.451Z,6.50
2018-09-30T01:35:05.663Z,6.23
2018-09-30T01:37:34.499Z,5.57
2018-09-30T01:40:09.027Z,6.33
2018-09-30T01:42:37.367Z,6.17
2018-09-30T01:45:05.583Z,6.60
2018-09-30T01:47:33.724Z,6.37
2018-09-30T01:50:03.104Z,5.63
2018-09-30T01:52:52.164Z,6.00
2018-09-30T01:55:20.395Z,5.67
2018-09-30T01:57:48.508Z,5.43
2018-09-30T02:00:17.228Z,5.70
2018-09-30T02:02:45.906Z,6.43
2018-09-30T02:05:15.225Z,6.53
2018-09-30T02:07:43.780Z,6.83
2018-09-30T02:10:11.958Z,6.20
2018-09-30T02:12:40.342Z,6.77
2018-09-30T02:15:08.549Z,6.03
2018-09-30T02:17:36.880Z,6.43
2018-09-30T02:20:05.106Z,5.90
2018-09-30T02:22:33.559Z,5.80
2018-09-30T02:25:01.726Z,6.63
2018-09-30T02:27:30.045Z,6.90
2018-09-30T02:29:58.348Z,6.13
2018-09-30T02:32:26.702Z,5.77
2018-09-30T02:34:54.993Z,6.37
2018-09-30T02:37:23.283Z,6.40
2018-09-30T02:39:51.511Z,6.20
2018-09-30T02:42:19.793Z,6.13
2018-09-30T02:44:47.941Z,5.83
2018-09-30T02:47:16.127Z,5.87
2018-09-30T02:49:44.499Z,6.47
2018-09-30T02:52:12.732Z,6.07
2018-09-30T02:54:41.121Z,6.00
2018-09-30T02:57:09.311Z,6.10
2018-09-30T02:59:37.455Z,6.37
2018-09-30T03:02:06.153Z,6.73
2018-09-30T03:04:34.322Z,5.97
2018-09-30T03:07:08.221Z,5.97
2018-09-30T03:09:36.511Z,6.57
2018-09-30T03:12:04.741Z,5.93
2018-09-30T03:14:32.924Z,5.97
2018-09-30T03:17:01.056Z,6.10
2018-09-30T03:19:29.493Z,5.87
2018-09-30T03:21:57.696Z,6.13
2018-09-30T03:24:25.957Z,6.70
2018-09-30T03:26:54.254Z,7.73
2018-09-30T03:29:22.749Z,8.03
2018-09-30T03:31:51.181Z,7.77
2018-09-30T03:34:19.368Z,7.20
2018-09-30T03:36:47.634Z,7.20
2018-09-30T03:39:16.324Z,7.77
2018-09-30T03:41:44.517Z,6.97
2018-09-30T03:44:13.253Z,7.10
2018-09-30T03:46:41.429Z,6.93
2018-09-30T03:49:10.015Z,6.30
2018-09-30T03:51:38.214Z,6.47
2018-09-30T03:54:06.519Z,6.70
2018-09-30T03:56:34.798Z,6.50
2018-09-30T03:59:03.022Z,6.80
2018-09-30T04:01:31.327Z,6.33
2018-09-30T04:03:59.561Z,7.00
2018-09-30T04:06:28.317Z,7.03
2018-09-30T04:08:56.530Z,6.87
2018-09-30T04:11:24.881Z,6.40
2018-09-30T04:13:53.337Z,6.60
2018-09-30T04:16:21.555Z,10.33
2018-09-30T04:18:49.806Z,15.13
2018-09-30T04:21:18.271Z,9.77
2018-09-30T04:23:46.768Z,12.10
2018-09-30T04:26:14.997Z,15.70
2018-09-30T04:28:43.186Z,8.83
2018-09-30T04:31:11.316Z,8.47
2018-09-30T04:33:39.466Z,7.80
2018-09-30T04:36:07.640Z,7.40
2018-09-30T04:38:35.950Z,6.77
2018-09-30T04:41:04.351Z,8.30
2018-09-30T04:43:32.725Z,9.20
2018-09-30T04:46:00.776Z,8.33
2018-09-30T04:48:28.901Z,6.70
2018-09-30T04:50:57.228Z,6.33
2018-09-30T04:53:25.558Z,6.40
2018-09-30T04:55:53.869Z,5.90
2018-09-30T04:58:23.275Z,6.10
2018-09-30T05:00:51.625Z,6.13
2018-09-30T05:03:19.831Z,6.60
2018-09-30T05:05:48.236Z,6.00
2018-09-30T05:08:16.335Z,7.30
2018-09-30T05:10:44.622Z,6.10
2018-09-30T05:13:12.866Z,5.77
2018-09-30T05:15:41.454Z,7.20
2018-09-30T05:18:09.607Z,7.27
2018-09-30T05:20:37.764Z,7.30
2018-09-30T05:23:06.372Z,9.07
2018-09-30T05:25:34.749Z,8.93
2018-09-30T05:28:02.939Z,7.97
2018-09-30T05:30:31.109Z,8.60
2018-09-30T05:32:59.407Z,9.83
2018-09-30T05:35:27.691Z,8.37
2018-09-30T05:37:55.988Z,11.10
2018-09-30T05:40:24.492Z,11.10
2018-09-30T05:42:52.688Z,14.27
2018-09-30T05:45:20.926Z,19.60
2018-09-30T05:47:49.100Z,13.97
2018-09-30T05:50:17.416Z,8.93
2018-09-30T05:52:45.685Z,7.93
2018-09-30T05:55:14.020Z,7.97
2018-09-30T05:57:42.443Z,7.93
2018-09-30T06:00:10.626Z,7.43
2018-09-30T06:02:39.064Z,7.17
2018-09-30T06:05:07.390Z,6.70
2018-09-30T06:07:35.694Z,8.30
2018-09-30T06:10:04.517Z,9.23
2018-09-30T06:12:32.786Z,8.97
2018-09-30T06:15:01.228Z,8.37
2018-09-30T06:17:29.504Z,5.63
2018-09-30T06:19:57.799Z,5.30
2018-09-30T06:22:26.270Z,4.90
2018-09-30T06:24:54.633Z,4.77
2018-09-30T06:27:23.383Z,4.30
2018-09-30T06:29:51.863Z,4.23
2018-09-30T06:32:20.151Z,4.17
2018-09-30T06:34:48.512Z,4.90
2018-09-30T06:37:17.275Z,11.87
2018-09-30T06:39:45.464Z,7.47
2018-09-30T06:42:13.650Z,7.67
2018-09-30T06:44:41.927Z,6.00
2018-09-30T06:47:10.398Z,6.10
2018-09-30T06:49:38.605Z,6.23
2018-09-30T06:52:07.053Z,4.47
2018-09-30T06:54:35.316Z,4.60
2018-09-30T06:57:05.075Z,4.13
2018-09-30T06:59:34.731Z,3.90
2018-09-30T07:02:04.605Z,3.77
2018-09-30T07:04:33.132Z,3.60
2018-09-30T07:07:01.885Z,3.60
2018-09-30T07:09:31.838Z,4.13
2018-09-30T07:12:01.005Z,4.23
2018-09-30T07:14:30.067Z,4.37
2018-09-30T07:16:58.380Z,4.07
2018-09-30T07:19:28.183Z,4.00
2018-09-30T07:21:57.576Z,3.40
2018-09-30T07:24:25.842Z,3.97
2018-09-30T07:26:55.154Z,3.63
2018-09-30T07:29:26.455Z,3.47
2018-09-30T07:31:54.903Z,3.80
2018-09-30T07:34:23.245Z,4.20
2018-09-30T07:36:51.557Z,3.83
2018-09-30T07:39:19.811Z,4.03
2018-09-30T07:41:48.470Z,4.13
2018-09-30T07:44:17.137Z,3.73
2018-09-30T07:46:45.402Z,3.90
2018-09-30T07:49:13.511Z,3.77
2018-09-30T07:51:41.703Z,3.93
2018-09-30T07:54:10.055Z,3.70
2018-09-30T07:56:38.645Z,3.70
2018-09-30T07:59:07.401Z,3.40
2018-09-30T08:01:35.592Z,3.63
2018-09-30T08:04:04.164Z,4.13
2018-09-30T08:06:32.377Z,4.33
2018-09-30T08:09:00.569Z,4.10
2018-09-30T08:11:28.945Z,4.00
2018-09-30T08:13:57.815Z,4.20
2018-09-30T08:16:26.068Z,4.53
2018-09-30T08:18:54.361Z,4.30
2018-09-30T08:21:22.708Z,4.07
2018-09-30T08:23:51.115Z,4.30
2018-09-30T08:26:19.449Z,4.43
2018-09-30T08:28:48.028Z,4.30
2018-09-30T08:31:16.319Z,4.17
2018-09-30T08:33:45.796Z,4.47
2018-09-30T08:36:14.138Z,4.50
2018-09-30T08:38:42.674Z,3.97
2018-09-30T08:41:11.911Z,4.37
2018-09-30T08:43:41.700Z,4.53
2018-09-30T08:46:10.332Z,4.30
2018-09-30T08:48:38.592Z,4.60
2018-09-30T08:51:07.090Z,4.63
2018-09-30T08:53:35.570Z,5.77
2018-09-30T08:56:04.267Z,4.77
2018-09-30T08:58:34.511Z,4.77
2018-09-30T09:01:03.349Z,4.70
2018-09-30T09:03:33.081Z,4.70
2018-09-30T09:07:04.975Z,4.00
2018-09-30T09:09:33.152Z,4.83
2018-09-30T09:12:01.811Z,4.37
2018-09-30T09:14:30.127Z,4.47
2018-09-30T09:16:58.342Z,4.70
2018-09-30T09:19:26.769Z,5.00
2018-09-30T09:21:55.141Z,4.43
2018-09-30T09:24:23.462Z,5.30
2018-09-30T09:26:51.670Z,4.50
2018-09-30T09:29:20.112Z,5.00
2018-09-30T09:31:48.415Z,5.00
2018-09-30T09:34:16.594Z,4.80
2018-09-30T09:36:44.926Z,5.20
2018-09-30T09:39:13.410Z,4.77
2018-09-30T09:41:41.717Z,5.10
2018-09-30T09:44:10.355Z,4.50
2018-09-30T09:46:38.718Z,4.77
2018-09-30T09:49:07.302Z,4.40
2018-09-30T09:51:35.714Z,4.60
2018-09-30T09:54:04.338Z,4.40
2018-09-30T09:56:32.634Z,4.73
2018-09-30T09:59:00.964Z,4.50
2018-09-30T10:01:29.747Z,4.47
2018-09-30T10:03:58.908Z,4.97
2018-09-30T10:06:27.347Z,5.10
2018-09-30T10:08:55.612Z,4.97
2018-09-30T10:11:24.895Z,4.77
2018-09-30T10:13:53.576Z,4.87
2018-09-30T10:16:22.443Z,5.03
2018-09-30T10:18:50.871Z,5.10
2018-09-30T10:21:20.928Z,4.50
2018-09-30T10:23:49.443Z,4.90
2018-09-30T10:26:17.820Z,5.03
2018-09-30T10:28:46.187Z,4.87
2018-09-30T10:31:14.537Z,4.47
2018-09-30T10:33:42.949Z,4.90
2018-09-30T10:36:14.867Z,5.00
2018-09-30T10:38:43.171Z,5.20
2018-09-30T10:41:11.873Z,6.87
2018-09-30T10:43:40.243Z,5.50
2018-09-30T10:46:09.433Z,5.43
2018-09-30T10:48:37.895Z,5.33
2018-09-30T10:51:06.419Z,5.43
2018-09-30T10:53:35.177Z,6.07
2018-09-30T10:56:03.595Z,5.20
2018-09-30T10:58:32.159Z,5.60
2018-09-30T11:01:00.406Z,5.23
2018-09-30T11:03:28.769Z,5.53
2018-09-30T11:05:56.994Z,6.03
2018-09-30T11:08:28.440Z,6.10
2018-09-30T11:10:56.756Z,5.90
2018-09-30T11:13:24.962Z,6.80
2018-09-30T11:15:54.572Z,7.17
2018-09-30T11:18:22.839Z,7.03
2018-09-30T11:20:51.417Z,7.03
2018-09-30T11:23:19.668Z,7.13
2018-09-30T11:25:47.843Z,6.13
2018-09-30T11:28:16.180Z,6.40
2018-09-30T11:30:44.617Z,6.10
2018-09-30T11:33:13.182Z,6.20
2018-09-30T11:35:41.388Z,6.90
2018-09-30T11:38:09.632Z,6.30
2018-09-30T11:40:37.897Z,6.53
2018-09-30T11:43:16.196Z,6.70
2018-09-30T11:45:44.430Z,5.80
2018-09-30T11:48:12.880Z,5.97
2018-09-30T11:50:41.356Z,6.83
2018-09-30T11:53:09.667Z,6.80
2018-09-30T11:55:38.201Z,6.30
2018-09-30T11:58:06.519Z,7.00
2018-09-30T12:00:34.829Z,6.70
2018-09-30T12:03:03.309Z,6.03
2018-09-30T12:05:31.493Z,7.17
2018-09-30T12:07:59.609Z,7.10
2018-09-30T12:10:27.936Z,6.50
2018-09-30T12:12:56.166Z,6.33
2018-09-30T12:15:24.364Z,6.37
2018-09-30T12:17:52.539Z,6.30
2018-09-30T12:20:21.086Z,6.20
2018-09-30T12:22:49.207Z,6.57
2018-09-30T12:25:17.365Z,7.77
2018-09-30T12:27:45.550Z,6.67
2018-09-30T12:30:13.778Z,7.80
2018-09-30T12:32:41.930Z,7.33
2018-09-30T12:35:10.115Z,7.20
2018-09-30T12:37:38.343Z,6.53
2018-09-30T12:40:06.707Z,7.70
2018-09-30T12:42:34.875Z,6.03
2018-09-30T12:45:03.259Z,6.83
2018-09-30T12:47:31.427Z,7.23
2018-09-30T12:49:59.649Z,7.20
2018-09-30T12:52:27.978Z,6.80
2018-09-30T12:54:56.208Z,6.83
2018-09-30T12:57:24.414Z,6.40
2018-09-30T12:59:52.601Z,6.43
2018-09-30T13:02:20.804Z,6.27
2018-09-30T13:04:48.984Z,6.10
2018-09-30T13:07:17.253Z,6.37
2018-09-30T13:09:45.417Z,6.20
2018-09-30T13:12:14.128Z,6.00
2018-09-30T13:14:43.449Z,7.13
2018-09-30T13:17:11.931Z,6.07
2018-09-30T13:19:40.509Z,6.20
2018-09-30T13:22:09.037Z,6.47
2018-09-30T13:24:37.181Z,5.50
2018-09-30T13:27:05.500Z,5.60
2018-09-30T13:29:33.701Z,6.37
2018-09-30T13:32:02.217Z,6.17
2018-09-30T13:34:30.391Z,6.10
2018-09-30T13:36:58.806Z,6.37
2018-09-30T13:39:27.786Z,5.90
2018-09-30T13:41:57.789Z,5.33
2018-09-30T13:44:26.571Z,5.63
2018-09-30T13:46:54.841Z,5.50
2018-09-30T13:49:23.366Z,5.93
2018-09-30T13:51:51.859Z,5.40
2018-09-30T13:54:19.970Z,5.40
2018-09-30T13:56:48.194Z,5.30
2018-09-30T13:59:16.375Z,5.87
2018-09-30T14:01:44.672Z,6.03
2018-09-30T14:04:13.415Z,6.47
2018-09-30T14:06:41.977Z,5.90
2018-09-30T14:09:10.654Z,5.63
2018-09-30T14:11:39.376Z,5.50
2018-09-30T14:14:07.861Z,5.67
2018-09-30T14:16:36.064Z,5.57
2018-09-30T14:19:04.389Z,5.57
2018-09-30T14:21:32.904Z,5.30
2018-09-30T14:24:01.349Z,5.73
2018-09-30T14:26:29.714Z,4.90
2018-09-30T14:28:57.921Z,5.27
2018-09-30T14:31:26.177Z,5.90
2018-09-30T14:33:54.607Z,5.27
2018-09-30T14:36:23.124Z,5.83
2018-09-30T14:38:51.507Z,6.40
2018-09-30T14:41:19.731Z,6.03
2018-09-30T14:43:48.043Z,6.50
2018-09-30T14:46:16.228Z,7.83
2018-09-30T14:48:44.636Z,11.70
2018-09-30T14:51:13.231Z,8.33
2018-09-30T14:53:41.670Z,5.77
2018-09-30T14:56:09.969Z,6.70
2018-09-30T14:58:38.331Z,6.50
2018-09-30T15:01:06.706Z,6.80
2018-09-30T15:03:34.997Z,6.27
2018-09-30T15:06:03.324Z,6.70
2018-09-30T15:08:31.535Z,5.57
2018-09-30T15:10:59.971Z,5.13
2018-09-30T15:13:28.144Z,5.17
2018-09-30T15:15:57.415Z,5.10
2018-09-30T15:18:25.639Z,4.57
2018-09-30T15:20:53.900Z,5.37
2018-09-30T15:23:22.124Z,5.40
2018-09-30T15:25:50.272Z,5.20
2018-09-30T15:28:18.439Z,4.80
2018-09-30T15:30:46.540Z,4.70
2018-09-30T15:33:14.722Z,4.57
2018-09-30T15:35:42.861Z,4.77
2018-09-30T15:38:11.007Z,4.57
2018-09-30T15:40:39.206Z,4.73
2018-09-30T15:43:07.759Z,4.57
2018-09-30T15:45:36.080Z,4.43
2018-09-30T15:48:04.326Z,4.70
2018-09-30T15:50:32.648Z,5.10
2018-09-30T15:53:00.895Z,4.67
2018-09-30T15:55:29.088Z,4.27
2018-09-30T15:57:57.245Z,4.03
2018-09-30T16:00:25.463Z,4.00
2018-09-30T16:02:53.621Z,4.00
2018-09-30T16:05:21.962Z,4.17
2018-09-30T16:07:50.107Z,3.87
2018-09-30T16:10:18.287Z,4.57
2018-09-30T16:12:47.025Z,4.33
2018-09-30T16:15:15.236Z,4.50
2018-09-30T16:17:43.492Z,4.83
2018-09-30T16:20:12.012Z,4.50
2018-09-30T16:22:40.228Z,4.20
2018-09-30T16:25:08.481Z,4.73
2018-09-30T16:27:36.680Z,4.50
2018-09-30T16:30:05.169Z,4.50
2018-09-30T16:32:33.646Z,4.20
2018-09-30T16:35:01.929Z,4.10
2018-09-30T16:37:30.239Z,3.73
2018-09-30T16:39:58.510Z,4.07
2018-09-30T16:42:26.673Z,4.07
2018-09-30T16:44:54.858Z,4.33
2018-09-30T16:47:23.034Z,3.60
2018-09-30T16:49:51.405Z,3.67
2018-09-30T16:52:19.581Z,4.07
2018-09-30T16:54:47.816Z,4.77
2018-09-30T16:57:16.205Z,4.63
2018-09-30T16:59:44.410Z,4.10
2018-09-30T17:02:12.686Z,3.90
2018-09-30T17:04:41.146Z,4.00
2018-09-30T17:07:09.428Z,4.03
2018-09-30T17:09:37.592Z,4.70
2018-09-30T17:12:06.031Z,5.20
2018-09-30T17:14:34.225Z,4.37
2018-09-30T17:17:02.760Z,4.83
2018-09-30T17:19:30.990Z,4.10
2018-09-30T17:21:59.600Z,8.20
2018-09-30T17:24:27.713Z,4.90
2018-09-30T17:26:56.100Z,4.70
2018-09-30T17:29:24.776Z,4.47
2018-09-30T17:31:53.090Z,4.47
2018-09-30T17:34:21.458Z,5.23
2018-09-30T17:36:49.873Z,6.20
2018-09-30T17:39:18.280Z,6.63
2018-09-30T17:41:46.968Z,5.80
2018-09-30T17:44:15.235Z,6.80
2018-09-30T17:46:43.547Z,7.33
2018-09-30T17:49:12.590Z,6.27
2018-09-30T17:51:41.111Z,6.77
2018-09-30T17:54:09.566Z,11.07
2018-09-30T17:56:38.171Z,9.53
2018-09-30T17:59:06.465Z,7.60
2018-09-30T18:01:35.460Z,8.63
2018-09-30T18:04:05.132Z,7.67
2018-09-30T18:06:33.494Z,7.90
2018-09-30T18:09:02.384Z,7.97
2018-09-30T18:11:30.860Z,7.87
2018-09-30T18:13:59.327Z,7.80
2018-09-30T18:16:27.899Z,8.67
2018-09-30T18:18:56.117Z,9.50
2018-09-30T18:21:24.636Z,9.57
2018-09-30T18:23:53.421Z,8.73
2018-09-30T18:26:21.643Z,8.50
2018-09-30T18:28:50.404Z,8.80
2018-09-30T18:31:18.879Z,8.97
2018-09-30T18:33:47.234Z,8.97
2018-09-30T18:36:15.933Z,9.47
2018-09-30T18:38:45.086Z,9.70
2018-09-30T18:41:14.445Z,9.20
2018-09-30T18:43:43.288Z,8.43
2018-09-30T18:46:11.775Z,9.80
2018-09-30T18:48:41.327Z,9.33
2018-09-30T18:51:10.357Z,9.20
2018-09-30T18:53:39.325Z,8.60
2018-09-30T18:56:08.582Z,8.77
2018-09-30T18:58:37.641Z,9.30
2018-09-30T19:01:07.906Z,9.20
2018-09-30T19:03:36.615Z,8.70
2018-09-30T19:06:05.249Z,7.70
2018-09-30T19:08:34.138Z,7.90
2018-09-30T19:11:02.677Z,7.63
2018-09-30T19:13:31.112Z,7.90
2018-09-30T19:15:59.565Z,8.17
2018-09-30T19:18:27.944Z,8.23
2018-09-30T19:20:56.804Z,15.03
2018-09-30T19:23:25.980Z,13.27
2018-09-30T19:25:55.718Z,9.60
2018-09-30T19:28:24.087Z,8.73
2018-09-30T19:30:52.363Z,8.23
2018-09-30T19:33:20.668Z,7.63
2018-09-30T19:35:49.386Z,7.57
2018-09-30T19:38:18.746Z,7.40
2018-09-30T19:40:47.240Z,7.50
2018-09-30T19:43:15.930Z,7.53
2018-09-30T19:45:44.969Z,7.67
2018-09-30T19:48:13.396Z,8.10
2018-09-30T19:50:41.870Z,7.37
2018-09-30T19:53:10.755Z,9.70
2018-09-30T19:55:39.196Z,14.53
2018-09-30T19:58:07.931Z,8.23
2018-09-30T20:00:36.073Z,9.17
2018-09-30T20:03:04.829Z,7.70
2018-09-30T20:05:33.110Z,10.17
2018-09-30T20:08:01.732Z,8.80
2018-09-30T20:10:30.503Z,10.63
2018-09-30T20:13:00.118Z,11.27
2018-09-30T20:15:28.922Z,10.03
2018-09-30T20:17:57.374Z,9.17
2018-09-30T20:20:29.120Z,8.57
2018-09-30T20:22:57.857Z,8.00
2018-09-30T20:25:26.761Z,8.20
2018-09-30T20:27:55.386Z,8.20
2018-09-30T20:30:23.882Z,9.33
2018-09-30T20:32:53.025Z,9.70
2018-09-30T20:35:22.076Z,9.87
2018-09-30T20:37:50.392Z,9.67
2018-09-30T20:40:19.552Z,10.07
2018-09-30T20:42:48.364Z,10.70
2018-09-30T20:45:17.397Z,9.13
2018-09-30T20:47:46.045Z,9.10
2018-09-30T20:50:14.564Z,8.57
2018-09-30T20:52:42.970Z,8.20
2018-09-30T20:55:12.225Z,9.00
2018-09-30T20:57:40.452Z,8.07
2018-09-30T21:00:09.165Z,8.67
2018-09-30T21:02:37.990Z,8.43
2018-09-30T21:05:22.972Z,7.60
2018-09-30T21:07:51.426Z,8.07
2018-09-30T21:10:19.610Z,7.53
2018-09-30T21:12:48.024Z,8.03
2018-09-30T21:15:16.185Z,7.13
2018-09-30T21:17:44.507Z,7.33
2018-09-30T21:20:12.970Z,7.67
2018-09-30T21:22:41.136Z,7.80
2018-09-30T21:25:09.755Z,8.00
2018-09-30T21:27:38.051Z,8.13
2018-09-30T21:30:07.028Z,10.30
2018-09-30T21:32:35.503Z,10.73
2018-09-30T21:35:03.818Z,8.40
2018-09-30T21:37:32.119Z,7.30
2018-09-30T21:40:00.719Z,7.77
2018-09-30T21:42:29.071Z,7.23
2018-09-30T21:44:57.544Z,7.40
2018-09-30T21:47:25.707Z,7.70
2018-09-30T21:49:54.115Z,7.10
2018-09-30T21:52:22.497Z,7.23
2018-09-30T21:54:50.835Z,7.13
2018-09-30T21:57:21.245Z,7.43
2018-09-30T21:59:49.777Z,7.10
2018-09-30T22:02:18.098Z,7.13
2018-09-30T22:04:46.257Z,7.97
2018-09-30T22:07:14.317Z,7.80
2018-09-30T22:09:42.512Z,7.33
2018-09-30T22:12:10.795Z,7.43
2018-09-30T22:14:39.337Z,7.57
2018-09-30T22:17:07.585Z,7.10
2018-09-30T22:19:35.993Z,7.07
2018-09-30T22:22:04.360Z,7.47
2018-09-30T22:24:32.674Z,6.87
2018-09-30T22:27:01.046Z,7.03
2018-09-30T22:29:29.280Z,7.30
2018-09-30T22:31:57.421Z,7.03
2018-09-30T22:34:25.837Z,7.13
2018-09-30T22:36:54.285Z,6.80
2018-09-30T22:39:22.303Z,7.40
2018-09-30T22:41:50.583Z,11.17
2018-09-30T22:44:18.819Z,11.70
2018-09-30T22:46:46.990Z,13.27
2018-09-30T22:49:15.656Z,11.23
2018-09-30T22:51:43.984Z,10.10
2018-09-30T22:54:12.175Z,9.33
2018-09-30T22:56:40.339Z,10.13
2018-09-30T22:59:09.068Z,9.90
2018-09-30T23:01:37.464Z,9.10
2018-09-30T23:04:05.966Z,9.63
2018-09-30T23:06:34.161Z,9.63
2018-09-30T23:09:02.638Z,9.33
2018-09-30T23:11:30.936Z,9.27
2018-09-30T23:13:59.444Z,9.63
2018-09-30T23:16:27.795Z,9.67
2018-09-30T23:18:56.194Z,9.63
2018-09-30T23:21:24.449Z,9.23
2018-09-30T23:23:52.677Z,8.97
2018-09-30T23:26:21.206Z,9.93
2018-09-30T23:28:49.504Z,8.70
2018-09-30T23:31:17.901Z,10.23
2018-09-30T23:33:46.657Z,9.33
2018-09-30T23:36:14.973Z,9.60
2018-09-30T23:38:43.512Z,9.43
2018-09-30T23:41:11.706Z,8.40
2018-09-30T23:43:40.066Z,8.70
2018-09-30T23:46:08.446Z,8.50
2018-09-30T23:48:37.750Z,8.33
2018-09-30T23:51:05.834Z,8.10
2018-09-30T23:53:34.084Z,8.37
2018-09-30T23:56:02.234Z,9.00
2018-09-30T23:58:30.411Z,8.80
